Time;durP1;ratioP1;P1;durP2;ratioP2;P2;SDS_P1;SDS_P2;PMS_P1;PMS_P2;Temp;Humidity;BMP_temperature;BMP_pressure;BME280_temperature;BME280_humidity;BME280_pressure;Samples;Min_cycle;Max_cycle;Signal;HPM_P1;HPM_P2
2022/06/18 00:00:20;;;;;;;11.38;10.13;;;;;;;18.18;68.89;95750.75;5010280;28;20030;-79
2022/06/18 00:02:46;;;;;;;11.65;10.45;;;;;;;18.12;68.98;95747.00;5026654;28;20496;-79
2022/06/18 00:05:12;;;;;;;12.00;10.32;;;;;;;18.18;69.23;95744.50;5026408;28;20083;-78
2022/06/18 00:07:39;;;;;;;14.00;11.00;;;;;;;18.18;68.88;95739.91;5026674;28;20052;-78
2022/06/18 00:10:06;;;;;;;11.52;10.40;;;;;;;18.11;69.03;95744.50;5025017;28;20046;-78
2022/06/18 00:15:26;;;;;;;11.95;10.38;;;;;;;18.06;69.01;95741.59;5026576;28;20037;-78
2022/06/18 00:17:51;;;;;;;11.30;10.23;;;;;;;18.12;68.96;95744.28;5009674;28;20063;-80
2022/06/18 00:20:17;;;;;;;11.80;10.48;;;;;;;18.11;68.98;95745.31;5009664;28;20037;-79
2022/06/18 00:22:44;;;;;;;11.50;10.40;;;;;;;18.12;69.20;95740.78;5008985;28;20032;-79
2022/06/18 00:25:26;;;;;;;11.48;10.25;;;;;;;18.16;68.88;95731.97;4993441;28;20070;-79
2022/06/18 00:27:51;;;;;;;11.75;10.43;;;;;;;18.15;68.75;95730.28;5026748;28;20033;-80
2022/06/18 00:30:20;;;;;;;10.82;9.75;;;;;;;18.15;68.90;95724.06;5027305;28;20483;-79
2022/06/18 00:32:46;;;;;;;11.70;10.02;;;;;;;18.16;68.98;95731.97;5025531;28;20115;-79
2022/06/18 00:35:12;;;;;;;10.82;9.73;;;;;;;18.13;68.95;95726.97;5009367;28;20113;-78
2022/06/18 00:37:38;;;;;;;11.20;10.10;;;;;;;18.06;68.61;95720.72;5009779;28;20026;-80
2022/06/18 00:40:25;;;;;;;11.68;10.45;;;;;;;18.12;68.97;95719.06;5009328;28;20049;-80
2022/06/18 00:42:51;;;;;;;10.90;9.90;;;;;;;18.13;68.74;95721.56;5026049;28;20136;-78
2022/06/18 00:45:20;;;;;;;12.20;10.48;;;;;;;18.05;68.52;95721.78;5009349;28;20031;-80
2022/06/18 00:48:12;;;;;;;11.40;10.05;;;;;;;17.83;69.76;95719.38;5009200;28;20068;-79
2022/06/18 00:50:44;;;;;;;11.63;10.52;;;;;;;17.80;69.43;95722.50;5011882;28;20053;-80
2022/06/18 00:53:17;;;;;;;;;;;;;;;17.75;70.07;95730.50;4994026;28;20045;-79
2022/06/18 00:55:53;;;;;;;16.40;10.43;;;;;;;17.62;70.19;95726.75;5025980;28;19913;-78
2022/06/18 00:58:50;;;;;;;12.23;10.98;;;;;;;17.69;69.71;95725.91;5009767;28;20032;-80
2022/06/18 01:01:21;;;;;;;12.25;11.05;;;;;;;17.69;69.91;95723.19;5026127;28;20116;-78
2022/06/18 01:03:47;;;;;;;13.57;10.60;;;;;;;17.74;69.56;95728.81;5026383;28;20040;-80
2022/06/18 01:06:30;;;;;;;11.98;10.68;;;;;;;17.78;69.38;95728.16;5025338;28;20025;-79
2022/06/18 01:08:58;;;;;;;12.57;11.23;;;;;;;17.80;68.64;95727.94;5026985;28;20496;-79
2022/06/18 01:11:25;;;;;;;10.80;9.80;;;;;;;17.86;68.62;95721.66;5024426;28;20037;-79
2022/06/18 01:13:51;;;;;;;10.73;9.63;;;;;;;17.88;68.57;95727.69;4992137;28;20532;-79
2022/06/18 01:16:16;;;;;;;12.50;9.95;;;;;;;17.89;68.70;95729.34;5025317;28;20025;-80
2022/06/18 01:18:42;;;;;;;11.98;10.52;;;;;;;17.85;68.81;95721.84;5024838;28;20408;-80
2022/06/18 01:21:19;;;;;;;11.13;10.02;;;;;;;17.76;68.83;95715.88;5008183;28;20120;-80
2022/06/18 01:23:53;;;;;;;14.32;10.68;;;;;;;17.67;69.30;95718.81;5008525;28;20084;-78
2022/06/18 01:26:19;;;;;;;13.55;10.55;;;;;;;17.69;69.12;95724.03;5009311;28;20545;-80
2022/06/18 01:28:44;;;;;;;12.35;11.07;;;;;;;17.66;69.37;95717.16;5024414;28;20025;-79
2022/06/18 01:31:10;;;;;;;15.30;11.25;;;;;;;17.54;69.86;95722.41;5008372;28;20083;-80
2022/06/18 01:33:35;;;;;;;11.75;10.65;;;;;;;17.48;70.23;95725.13;5024573;28;20032;-80
2022/06/18 01:36:03;;;;;;;15.65;11.50;;;;;;;17.50;70.07;95725.75;5007934;28;20033;-80
2022/06/18 01:38:28;;;;;;;11.88;10.63;;;;;;;17.59;69.90;95726.38;5009017;28;20037;-79
2022/06/18 01:43:51;;;;;;;14.52;10.90;;;;;;;17.57;69.40;95729.31;5026434;28;20053;-80
2022/06/18 01:46:17;;;;;;;12.35;11.15;;;;;;;17.62;68.99;95726.75;5024347;28;20179;-80
2022/06/18 01:48:42;;;;;;;10.73;9.73;;;;;;;17.58;69.37;95719.28;5024932;28;20037;-78
2022/06/18 01:51:14;;;;;;;13.02;10.60;;;;;;;17.59;69.33;95721.75;5008283;28;20099;-81
2022/06/18 01:53:49;;;;;;;13.87;9.43;;;;;;;17.59;69.23;95732.63;5008537;28;20036;-78
2022/06/18 01:56:25;;;;;;;13.90;10.02;;;;;;;17.55;69.36;95731.38;5009351;28;20260;-79
2022/06/18 01:58:56;;;;;;;11.55;10.35;;;;;;;17.56;69.90;95719.47;5008555;28;20044;-79
2022/06/18 02:01:27;;;;;;;12.07;10.30;;;;;;;17.55;69.05;95720.53;5008676;28;20034;-80
2022/06/18 02:03:53;;;;;;;11.77;10.50;;;;;;;17.49;68.85;95716.78;5024870;28;20116;-80
2022/06/18 02:06:18;;;;;;;11.38;10.18;;;;;;;17.51;69.07;95717.41;4991585;28;20030;-80
2022/06/18 02:08:44;;;;;;;11.10;10.07;;;;;;;17.49;69.09;95710.56;5025441;28;20079;-79
2022/06/18 02:11:11;;;;;;;12.82;9.82;;;;;;;17.45;69.03;95715.56;5008419;28;20120;-80
2022/06/18 02:13:44;;;;;;;11.07;9.93;;;;;;;17.43;68.95;95720.34;4992920;28;20479;-80
2022/06/18 02:16:15;;;;;;;11.63;10.20;;;;;;;17.44;69.04;95721.19;5008675;28;20102;-81
2022/06/18 02:18:40;;;;;;;12.98;10.93;;;;;;;17.30;69.45;95723.94;5009423;28;20040;-80
2022/06/18 02:21:07;;;;;;;11.48;10.38;;;;;;;17.32;69.67;95715.59;5008827;28;20025;-80
2022/06/18 02:23:33;;;;;;;11.75;10.18;;;;;;;17.25;69.90;95721.06;5025467;28;20498;-79
2022/06/18 02:25:59;;;;;;;18.02;10.25;;;;;;;17.32;69.76;95721.84;5025257;28;20502;-79
2022/06/18 02:28:30;;;;;;;11.27;10.18;;;;;;;17.29;69.42;95733.13;5008552;28;20121;-79
2022/06/18 02:30:59;;;;;;;12.05;10.00;;;;;;;17.31;69.28;95731.03;5009460;28;20029;-80
2022/06/18 02:33:39;;;;;;;10.57;9.48;;;;;;;17.28;69.35;95724.16;5008721;28;20037;-79
2022/06/18 02:36:24;;;;;;;10.95;9.90;;;;;;;17.19;69.90;95725.44;5012831;28;20044;-79
2022/06/18 02:38:59;;;;;;;10.80;9.80;;;;;;;17.12;70.25;95714.59;5027602;28;20057;-80
2022/06/18 02:41:24;;;;;;;11.93;10.52;;;;;;;17.14;69.65;95704.38;5012051;28;20036;-78
2022/06/18 02:43:50;;;;;;;13.10;10.57;;;;;;;17.03;70.21;95713.13;5011881;28;20033;-81
2022/06/18 02:46:15;;;;;;;11.13;9.95;;;;;;;16.98;70.53;95711.06;5010990;28;20030;-79
2022/06/18 02:48:41;;;;;;;11.73;10.57;;;;;;;17.02;70.44;95708.78;5012032;28;20033;-79
2022/06/18 02:51:07;;;;;;;13.48;11.38;;;;;;;16.88;70.96;95706.06;5011748;28;20028;-80
2022/06/18 02:53:32;;;;;;;12.35;9.98;;;;;;;16.79;71.24;95707.34;5027909;28;20029;-79
2022/06/18 02:56:03;;;;;;;11.55;10.35;;;;;;;16.82;71.20;95704.19;4994894;28;20030;-78
2022/06/18 02:58:41;;;;;;;11.55;10.45;;;;;;;16.87;70.68;95704.41;5011668;28;20242;-80
2022/06/18 03:01:09;;;;;;;11.38;10.15;;;;;;;16.82;71.11;95701.50;5027678;28;20025;-79
2022/06/18 03:03:38;;;;;;;12.82;9.98;;;;;;;16.77;70.96;95706.69;5026780;28;20044;-79
2022/06/18 03:06:04;;;;;;;11.40;10.30;;;;;;;16.76;70.75;95708.59;5011653;28;20026;-79
2022/06/18 03:08:30;;;;;;;12.55;10.68;;;;;;;16.70;70.98;95706.72;5010547;28;20028;-79
2022/06/18 03:13:40;;;;;;;14.52;10.10;;;;;;;16.43;71.65;95704.84;5012929;28;20420;-79
2022/06/18 03:16:08;;;;;;;12.57;10.60;;;;;;;16.48;71.75;95712.34;5027277;28;20025;-79
2022/06/18 03:18:34;;;;;;;10.95;9.75;;;;;;;16.52;71.64;95708.16;5011448;28;20036;-79
2022/06/18 03:21:02;;;;;;;10.80;9.70;;;;;;;16.51;71.30;95717.34;5027168;28;20025;-80
2022/06/18 03:23:28;;;;;;;14.38;9.98;;;;;;;16.52;70.99;95718.97;5027642;28;20029;-79
2022/06/18 03:25:53;;;;;;;11.38;10.20;;;;;;;16.53;70.83;95722.53;5026923;28;20029;-79
2022/06/18 03:28:20;;;;;;;11.52;9.65;;;;;;;16.47;71.04;95720.66;5011680;28;20026;-78
2022/06/18 03:30:45;;;;;;;12.18;9.35;;;;;;;16.48;70.94;95717.75;5010186;28;20033;-78
2022/06/18 03:33:12;;;;;;;9.77;8.88;;;;;;;16.64;70.38;95721.06;5010612;28;20110;-78
2022/06/18 03:35:38;;;;;;;10.70;9.57;;;;;;;16.66;70.12;95716.28;5026387;28;20116;-80
2022/06/18 03:38:04;;;;;;;10.98;9.80;;;;;;;16.81;69.58;95722.31;5026625;28;20025;-80
2022/06/18 03:40:29;;;;;;;10.23;8.63;;;;;;;16.85;69.02;95728.16;5010481;28;20026;-79
2022/06/18 03:42:55;;;;;;;10.85;9.18;;;;;;;16.84;69.38;95726.50;5026203;28;20514;-81
2022/06/18 03:45:20;;;;;;;11.82;8.68;;;;;;;16.88;68.99;95722.31;5026301;28;20478;-79
2022/06/18 03:47:47;;;;;;;10.20;8.70;;;;;;;16.82;69.32;95723.16;5027559;28;20534;-81
2022/06/18 03:50:18;;;;;;;10.07;8.60;;;;;;;16.86;69.07;95729.81;5010451;28;20048;-82
2022/06/18 03:52:43;;;;;;;9.60;8.43;;;;;;;17.00;68.81;95735.22;5027459;28;20049;-80
2022/06/18 03:55:11;;;;;;;9.07;8.13;;;;;;;17.12;68.25;95740.88;5009831;28;20029;-79
2022/06/18 03:57:36;;;;;;;9.68;8.63;;;;;;;17.15;68.16;95741.28;5010114;28;20036;-80
2022/06/18 04:00:03;;;;;;;8.98;8.07;;;;;;;17.33;67.64;95739.78;5026472;28;20033;-80
2022/06/18 04:02:29;;;;;;;8.80;7.95;;;;;;;17.37;67.04;95745.63;5033009;28;20022;-80
2022/06/18 04:04:54;;;;;;;12.75;8.77;;;;;;;17.44;67.39;95740.19;5009221;28;20407;-80
2022/06/18 04:07:22;;;;;;;9.57;8.52;;;;;;;17.48;67.40;95735.97;5027111;28;20041;-79
2022/06/18 04:09:50;;;;;;;9.57;8.15;;;;;;;17.55;67.02;95734.09;5009258;28;20099;-80
2022/06/18 04:12:16;;;;;;;9.00;8.10;;;;;;;17.49;67.17;95738.47;5010107;28;20479;-80
2022/06/18 04:14:41;;;;;;;9.80;7.80;;;;;;;17.53;67.52;95738.91;5025689;28;20059;-80
2022/06/18 04:17:12;;;;;;;10.10;8.80;;;;;;;17.52;67.83;95745.38;5027429;28;20450;-80
2022/06/18 04:19:38;;;;;;;10.10;8.25;;;;;;;17.76;67.03;95751.13;5010145;28;20025;-77
2022/06/18 04:22:03;;;;;;;10.13;7.97;;;;;;;17.87;67.37;95747.75;5008936;28;20420;-79
2022/06/18 04:24:29;;;;;;;10.25;8.27;;;;;;;18.05;67.23;95746.19;5026108;28;20051;-79
2022/06/18 04:26:55;;;;;;;9.00;8.07;;;;;;;18.23;66.15;95737.34;5011437;28;20025;-81
2022/06/18 04:29:21;;;;;;;11.63;8.05;;;;;;;18.35;65.89;95745.63;5026113;28;20204;-79
2022/06/18 04:31:46;;;;;;;9.82;7.90;;;;;;;18.40;64.87;95745.81;5025254;28;20041;-79
2022/06/18 04:34:12;;;;;;;8.95;7.68;;;;;;;18.52;64.85;95739.69;5008901;28;20103;-79
2022/06/18 04:36:38;;;;;;;10.38;7.50;;;;;;;18.69;64.54;95744.56;5025878;28;20025;-79
2022/06/18 04:39:04;;;;;;;7.65;6.82;;;;;;;18.84;63.78;95742.34;5025272;28;20021;-79
2022/06/18 04:41:29;;;;;;;8.75;7.35;;;;;;;18.83;63.75;95737.97;5026242;28;20036;-81
2022/06/18 04:43:55;;;;;;;10.07;7.07;;;;;;;18.99;63.10;95744.72;4992310;28;20120;-79
2022/06/18 04:46:21;;;;;;;14.25;7.20;;;;;;;18.93;63.44;95740.19;5026029;28;20407;-81
2022/06/18 04:48:47;;;;;;;8.77;7.03;;;;;;;18.85;63.84;95730.44;5008390;28;20037;-79
2022/06/18 04:51:12;;;;;;;11.05;6.97;;;;;;;18.81;63.69;95739.25;5025436;28;20417;-80
2022/06/18 04:53:38;;;;;;;7.72;6.80;;;;;;;18.74;63.60;95736.56;5026496;28;20060;-79
2022/06/18 04:56:04;;;;;;;9.68;6.72;;;;;;;18.77;63.91;95736.13;5025065;28;20030;-78
2022/06/18 04:58:29;;;;;;;7.82;7.10;;;;;;;18.74;64.25;95742.00;5009047;28;20041;-80
2022/06/18 05:00:55;;;;;;;8.98;6.88;;;;;;;18.74;63.97;95742.00;5025500;28;20034;-80
2022/06/18 05:03:23;;;;;;;7.78;6.43;;;;;;;18.92;64.08;95734.97;5027191;28;20553;-79
2022/06/18 05:05:50;;;;;;;7.00;6.35;;;;;;;19.10;63.39;95736.94;5025374;28;20025;-80
2022/06/18 05:08:15;;;;;;;6.53;5.70;;;;;;;18.90;63.70;95743.34;5025415;28;20057;-79
2022/06/18 05:10:41;;;;;;;7.00;6.15;;;;;;;19.04;63.98;95752.19;5025334;28;20084;-80
2022/06/18 05:13:06;;;;;;;7.75;6.35;;;;;;;19.10;63.54;95751.34;5025123;28;20036;-79
2022/06/18 05:15:32;;;;;;;8.57;6.78;;;;;;;18.87;64.39;95750.06;5025236;28;20338;-81
2022/06/18 05:17:58;;;;;;;8.50;6.75;;;;;;;18.85;64.28;95754.88;5008456;28;20025;-79
2022/06/18 05:20:23;;;;;;;9.02;6.30;;;;;;;18.96;63.71;95749.78;5008839;28;20032;-79
2022/06/18 05:22:49;;;;;;;7.15;6.30;;;;;;;18.97;63.34;95749.56;5024431;28;20496;-80
2022/06/18 05:25:15;;;;;;;10.27;6.30;;;;;;;19.13;62.76;95756.34;5025226;28;20030;-80
2022/06/18 05:27:40;;;;;;;7.05;6.35;;;;;;;19.12;63.17;95751.16;5024529;28;20045;-80
2022/06/18 05:30:08;;;;;;;9.13;5.90;;;;;;;19.19;63.64;95757.34;5024936;28;20083;-79
2022/06/18 05:32:33;;;;;;;8.52;6.50;;;;;;;19.14;63.24;95765.31;5024714;28;20032;-81
2022/06/18 05:34:58;;;;;;;8.60;6.07;;;;;;;19.03;62.93;95764.13;5026038;28;20025;-80
2022/06/18 05:37:25;;;;;;;8.25;6.32;;;;;;;19.29;62.02;95759.53;5025301;28;20029;-80
2022/06/18 05:39:50;;;;;;;9.80;6.03;;;;;;;19.48;61.73;95765.84;5025142;28;20018;-79
2022/06/18 05:42:16;;;;;;;6.80;6.10;;;;;;;19.61;61.40;95772.19;5009085;28;20192;-79
2022/06/18 05:44:41;;;;;;;9.77;5.90;;;;;;;19.75;61.11;95778.28;5024395;28;20037;-79
2022/06/18 05:47:10;;;;;;;6.65;5.55;;;;;;;20.05;60.75;95768.56;5025071;28;20033;-78
2022/06/18 05:49:35;;;;;;;8.38;5.65;;;;;;;20.15;60.03;95768.03;5025272;28;20026;-78
2022/06/18 05:52:01;;;;;;;6.60;5.95;;;;;;;19.80;60.38;95764.84;5026367;28;20033;-78
2022/06/18 05:54:28;;;;;;;6.47;5.88;;;;;;;19.95;60.23;95760.91;5007675;28;20040;-79
2022/06/18 05:56:53;;;;;;;6.20;5.35;;;;;;;19.96;60.54;95760.66;5025918;28;20025;-78
2022/06/18 05:59:19;;;;;;;9.98;5.85;;;;;;;20.27;59.58;95763.44;5024266;28;20126;-80
2022/06/18 06:01:44;;;;;;;6.68;5.68;;;;;;;20.45;59.64;95765.28;5026081;28;20156;-78
2022/06/18 06:04:11;;;;;;;8.27;5.45;;;;;;;20.50;58.77;95768.16;5026205;28;20034;-78
2022/06/18 06:06:36;;;;;;;6.03;5.43;;;;;;;20.41;58.65;95774.16;5025605;28;20100;-79
2022/06/18 06:09:02;;;;;;;6.07;5.22;;;;;;;20.45;58.56;95767.19;5029121;28;20030;-78
2022/06/18 06:11:30;;;;;;;9.25;5.20;;;;;;;20.54;57.44;95763.06;5027603;28;20052;-79
2022/06/18 06:13:56;;;;;;;8.73;5.40;;;;;;;20.63;57.57;95758.94;5030111;28;20057;-80
2022/06/18 06:16:22;;;;;;;7.03;5.50;;;;;;;20.75;57.36;95771.75;5028272;28;20099;-80
2022/06/18 06:18:48;;;;;;;5.72;5.15;;;;;;;20.85;57.53;95769.31;5028206;28;20064;-79
2022/06/18 06:21:13;;;;;;;6.03;4.60;;;;;;;21.02;56.82;95767.81;5028170;28;20029;-79
2022/06/18 06:23:39;;;;;;;5.38;4.88;;;;;;;21.12;55.44;95768.88;5027670;28;20084;-79
2022/06/18 06:26:12;;;;;;;5.70;4.88;;;;;;;21.05;55.93;95768.19;5012360;28;20025;-80
2022/06/18 06:28:38;;;;;;;5.22;4.72;;;;;;;21.11;54.97;95767.22;5011640;28;20544;-78
2022/06/18 06:31:04;;;;;;;5.20;4.30;;;;;;;21.35;55.26;95767.22;5011933;28;20059;-81
2022/06/18 06:33:29;;;;;;;6.63;4.85;;;;;;;21.47;54.48;95769.13;5028879;28;20507;-80
2022/06/18 06:35:55;;;;;;;5.57;4.90;;;;;;;21.40;53.52;95762.94;5029163;28;20112;-81
2022/06/18 06:38:20;;;;;;;9.13;4.50;;;;;;;21.64;53.71;95765.66;5028062;28;20481;-80
2022/06/18 06:40:46;;;;;;;5.88;4.63;;;;;;;21.68;53.02;95767.66;5027875;28;20079;-80
2022/06/18 06:43:12;;;;;;;6.28;4.30;;;;;;;21.68;52.24;95764.13;5028756;28;20056;-80
2022/06/18 06:45:38;;;;;;;5.35;4.28;;;;;;;21.70;53.08;95767.44;5010599;28;20029;-79
2022/06/18 06:48:03;;;;;;;8.82;4.97;;;;;;;21.78;54.05;95763.53;5011864;28;20033;-80
2022/06/18 06:50:29;;;;;;;6.68;4.75;;;;;;;21.72;53.57;95770.75;5028282;28;20032;-78
2022/06/18 06:52:56;;;;;;;7.10;4.75;;;;;;;21.78;53.80;95763.53;5027932;28;20029;-84
2022/06/18 06:58:14;;;;;;;4.10;3.63;;;;;;;22.28;50.24;95759.34;5028020;28;20156;-80
2022/06/18 07:00:45;;;;;;;5.60;4.53;;;;;;;22.50;50.22;95760.56;5011761;28;20116;-79
2022/06/18 07:03:12;;;;;;;5.60;4.17;;;;;;;22.24;50.98;95755.44;5011097;28;20033;-80
2022/06/18 07:05:37;;;;;;;4.60;4.05;;;;;;;22.16;50.43;95758.56;5028505;28;20033;-79
2022/06/18 07:08:02;;;;;;;6.65;4.57;;;;;;;22.15;50.32;95757.72;5027543;28;20029;-79
2022/06/18 07:10:28;;;;;;;8.15;4.10;;;;;;;22.02;50.69;95749.81;5027238;28;20053;-80
2022/06/18 07:12:53;;;;;;;9.70;3.95;;;;;;;22.01;49.12;95751.72;5028999;28;20426;-80
2022/06/18 07:15:19;;;;;;;7.38;4.43;;;;;;;21.68;50.19;95758.66;5027452;28;20025;-79
2022/06/18 07:17:45;;;;;;;6.47;4.57;;;;;;;21.91;50.37;95759.72;5027434;28;20087;-80
2022/06/18 07:20:13;;;;;;;7.47;4.30;;;;;;;22.16;52.32;95758.56;5026787;28;20488;-79
2022/06/18 07:22:39;;;;;;;4.32;3.92;;;;;;;22.47;52.82;95754.50;5029021;28;20451;-79
2022/06/18 07:25:06;;;;;;;4.90;4.40;;;;;;;22.40;49.59;95762.03;5009998;28;20472;-79
2022/06/18 07:27:32;;;;;;;8.27;4.13;;;;;;;22.49;49.37;95759.72;5011167;28;20033;-80
2022/06/18 07:29:58;;;;;;;6.75;4.78;;;;;;;22.00;51.63;95755.53;5026638;28;20068;-79
2022/06/18 07:32:23;;;;;;;5.50;4.80;;;;;;;22.35;51.41;95751.84;5026801;28;20489;-80
2022/06/18 07:34:49;;;;;;;11.00;4.60;;;;;;;22.58;50.84;95752.81;5026940;28;20036;-80
2022/06/18 07:37:14;;;;;;;9.70;4.90;;;;;;;22.82;50.61;95754.59;5027710;28;20132;-79
2022/06/18 07:39:40;;;;;;;4.85;4.07;;;;;;;23.01;49.39;95757.91;4994347;28;20030;-81
2022/06/18 07:42:05;;;;;;;7.65;4.70;;;;;;;22.46;50.22;95752.84;5009428;28;20037;-80
2022/06/18 07:44:31;;;;;;;6.65;4.10;;;;;;;22.57;49.41;95753.03;5027089;28;20057;-81
2022/06/18 07:47:03;;;;;;;4.68;3.85;;;;;;;22.74;49.03;95753.09;5026168;28;20439;-80
2022/06/18 07:49:28;;;;;;;6.68;4.32;;;;;;;22.73;49.76;95751.44;5026865;28;20053;-80
2022/06/18 07:51:53;;;;;;;5.13;4.40;;;;;;;22.67;48.54;95747.78;5026189;28;20068;-80
2022/06/18 07:54:19;;;;;;;5.13;4.28;;;;;;;22.58;48.36;95750.06;5026244;28;20025;-79
2022/06/18 07:56:45;;;;;;;7.82;5.18;;;;;;;22.81;47.87;95742.00;5026357;28;20099;-78
2022/06/18 07:59:10;;;;;;;9.65;5.70;;;;;;;22.81;48.10;95752.94;5025626;28;20164;-80
2022/06/18 08:01:37;;;;;;;7.72;4.53;;;;;;;22.84;48.34;95746.97;5026882;28;20029;-80
2022/06/18 08:04:02;;;;;;;8.02;5.10;;;;;;;22.83;49.03;95748.88;5008752;28;20021;-79
2022/06/18 08:06:27;;;;;;;8.38;4.60;;;;;;;23.02;49.91;95747.81;5027983;28;20381;-79
2022/06/18 08:08:53;;;;;;;5.38;4.68;;;;;;;22.93;49.90;95745.47;5025571;28;20339;-80
2022/06/18 08:11:19;;;;;;;8.18;4.88;;;;;;;22.70;49.70;95751.91;5027782;28;20046;-80
2022/06/18 08:13:44;;;;;;;11.27;4.75;;;;;;;22.46;49.58;95749.28;5009533;28;20101;-80
2022/06/18 08:16:11;;;;;;;7.45;4.55;;;;;;;22.34;50.19;95744.69;5009516;28;20026;-80
2022/06/18 08:18:36;;;;;;;9.13;4.53;;;;;;;22.78;49.65;95747.97;5010401;28;20163;-81
2022/06/18 08:21:07;;;;;;;10.82;4.82;;;;;;;22.79;49.97;95752.34;5008540;28;20484;-79
2022/06/18 08:23:33;;;;;;;7.13;4.32;;;;;;;23.09;49.91;95752.03;5026532;28;20087;-79
2022/06/18 08:25:58;;;;;;;7.80;4.60;;;;;;;22.80;48.12;95746.63;4992166;28;20030;-80
2022/06/18 08:28:24;;;;;;;7.38;4.20;;;;;;;22.62;48.81;95746.88;5026206;28;20029;-80
2022/06/18 08:30:49;;;;;;;6.90;4.43;;;;;;;22.74;47.94;95738.59;5025052;28;20074;-79
2022/06/18 08:33:15;;;;;;;6.07;4.75;;;;;;;22.94;49.62;95738.09;5025477;28;20025;-81
2022/06/18 08:35:40;;;;;;;10.00;4.28;;;;;;;22.96;49.84;95744.13;5025686;28;20033;-80
2022/06/18 08:38:07;;;;;;;7.60;4.60;;;;;;;23.34;49.03;95745.25;5008402;28;20476;-79
2022/06/18 08:40:59;;;;;;;5.45;4.22;;;;;;;23.40;49.15;95742.63;5025897;28;20025;-80
2022/06/18 08:43:37;;;;;;;5.60;4.20;;;;;;;23.21;47.96;95732.75;5026140;28;20068;-80
2022/06/18 08:46:06;;;;;;;7.47;4.00;;;;;;;23.23;46.52;95731.69;5026457;28;20028;-80
2022/06/18 08:48:49;;;;;;;16.23;10.25;;;;;;;23.55;46.18;95729.16;5026613;28;20029;-79
2022/06/18 08:51:52;;;;;;;5.22;3.55;;;;;;;23.93;46.08;95723.91;4993499;28;20490;-81
2022/06/18 08:54:19;;;;;;;;;;;;;;;24.07;43.99;95709.78;5026039;28;20069;-80
2022/06/18 08:56:48;;;;;;;5.25;4.43;;;;;;;23.69;44.32;95717.84;5024909;28;19913;-79
2022/06/18 08:59:17;;;;;;;10.85;7.22;;;;;;;23.24;45.07;95720.50;4992186;28;20032;-80
2022/06/18 09:01:45;;;;;;;13.43;6.80;;;;;;;23.37;44.45;95715.75;5026495;28;20590;-80
2022/06/18 09:04:18;;;;;;;7.15;4.18;;;;;;;23.43;44.05;95722.97;5007863;28;20034;-79
2022/06/18 09:06:49;;;;;;;5.45;4.30;;;;;;;23.58;44.96;95725.09;5025723;28;20022;-80
2022/06/18 09:09:37;;;;;;;6.32;4.38;;;;;;;23.60;44.75;95708.44;5025620;28;20064;-78
2022/06/18 09:12:02;;;;;;;4.88;3.78;;;;;;;23.83;45.14;95718.28;5025981;28;20037;-79
2022/06/18 09:15:05;;;;;;;4.40;4.00;;;;;;;23.74;44.30;95711.59;5025994;28;20424;-82
2022/06/18 09:17:51;;;;;;;6.40;3.97;;;;;;;24.11;43.28;95723.81;5024040;28;20349;-79
2022/06/18 09:20:23;;;;;;;5.18;3.67;;;;;;;24.36;41.93;95714.25;5024791;28;20037;-79
2022/06/18 09:22:51;;;;;;;;;;;;;;;24.26;41.38;95712.25;5025060;28;20033;-79
2022/06/18 09:25:18;;;;;;;5.05;3.78;;;;;;;24.10;41.80;95705.72;5024405;28;19959;-80
2022/06/18 09:27:55;;;;;;;4.50;4.10;;;;;;;23.99;42.28;95715.75;5025015;28;20037;-80
2022/06/18 09:30:34;;;;;;;6.30;4.13;;;;;;;23.53;44.93;95719.56;5023826;28;20120;-82
2022/06/18 09:33:10;;;;;;;7.60;4.40;;;;;;;23.35;45.32;95713.25;5025575;28;20072;-81
2022/06/18 09:36:11;;;;;;;7.47;4.30;;;;;;;23.18;44.94;95714.13;5025138;28;20025;-81
2022/06/18 09:39:01;;;;;;;6.63;4.22;;;;;;;23.03;44.85;95711.16;5011613;28;20048;-80
2022/06/18 09:41:32;;;;;;;4.93;4.43;;;;;;;23.24;45.02;95717.78;5025084;28;20414;-82
2022/06/18 09:44:10;;;;;;;7.30;4.30;;;;;;;23.48;45.76;95711.28;5026657;28;20112;-80
2022/06/18 09:47:04;;;;;;;6.10;4.57;;;;;;;23.44;46.36;95713.72;5013668;28;20026;-80
2022/06/18 09:49:31;;;;;;;4.70;4.22;;;;;;;23.51;44.35;95716.25;5014912;28;20026;-82
2022/06/18 09:52:18;;;;;;;5.15;4.43;;;;;;;23.29;44.52;95717.84;5028080;28;20048;-81
2022/06/18 09:54:47;;;;;;;11.90;4.78;;;;;;;23.45;45.53;95713.44;5025622;28;20531;-81
2022/06/18 09:57:13;;;;;;;7.22;4.53;;;;;;;23.36;45.38;95709.44;4995293;28;20052;-80
2022/06/18 09:59:58;;;;;;;5.53;3.95;;;;;;;23.54;44.65;95704.78;5028942;28;20091;-80
2022/06/18 10:02:26;;;;;;;6.57;4.00;;;;;;;23.31;44.83;95709.38;5030026;28;20067;-81
2022/06/18 10:07:39;;;;;;;5.82;4.30;;;;;;;23.01;46.16;95707.84;5029088;28;20032;-82
2022/06/18 10:10:13;;;;;;;6.50;4.47;;;;;;;22.93;45.06;95706.34;5027822;28;20625;-79
2022/06/18 10:12:41;;;;;;;5.38;4.20;;;;;;;22.70;45.44;95710.91;5012590;28;20061;-81
2022/06/18 10:15:09;;;;;;;6.88;4.00;;;;;;;22.84;48.62;95704.03;5028382;28;20040;-80
2022/06/18 10:17:38;;;;;;;7.05;4.25;;;;;;;22.76;50.43;95707.22;5011469;28;20028;-81
2022/06/18 10:20:22;;;;;;;4.18;3.78;;;;;;;22.90;50.74;95712.31;5028823;28;20211;-80
2022/06/18 10:23:25;;;;;;;6.82;3.88;;;;;;;22.90;51.85;95712.31;5027268;28;20064;-80
2022/06/18 10:26:06;;;;;;;8.35;3.97;;;;;;;23.00;52.40;95709.75;5029342;28;20037;-80
2022/06/18 10:28:47;;;;;;;5.55;4.07;;;;;;;22.90;52.07;95712.31;5028748;28;20017;-79
2022/06/18 10:31:42;;;;;;;5.78;4.22;;;;;;;22.71;52.47;95715.31;5029150;28;20091;-79
2022/06/18 10:34:17;;;;;;;4.72;4.00;;;;;;;22.43;50.56;95719.72;5028278;28;20021;-79
2022/06/18 10:37:01;;;;;;;8.18;4.45;;;;;;;22.43;50.29;95714.25;5027872;28;20029;-80
2022/06/18 10:39:32;;;;;;;5.60;4.20;;;;;;;22.37;49.12;95715.22;5027150;28;20033;-80
2022/06/18 10:42:25;;;;;;;5.35;4.18;;;;;;;22.32;49.10;95703.16;5029768;28;20504;-83
2022/06/18 10:45:03;;;;;;;5.82;4.30;;;;;;;22.28;50.37;95721.09;5012332;28;20030;-82
2022/06/18 10:47:33;;;;;;;4.78;4.20;;;;;;;22.21;48.83;95717.69;5028648;28;20053;-82
2022/06/18 10:50:04;;;;;;;5.97;4.15;;;;;;;22.17;52.40;95727.44;5011474;28;20026;-79
2022/06/18 10:52:29;;;;;;;4.38;3.97;;;;;;;22.08;49.82;95719.66;5027079;28;20025;-82
2022/06/18 10:55:19;;;;;;;6.75;4.70;;;;;;;21.96;51.79;95727.88;5027854;28;20020;-80
2022/06/18 10:57:44;;;;;;;5.07;4.55;;;;;;;21.92;52.38;95729.44;5026710;28;20029;-79
2022/06/18 11:00:19;;;;;;;8.65;4.07;;;;;;;21.91;49.65;95722.31;5027816;28;20116;-79
2022/06/18 11:02:44;;;;;;;11.10;4.20;;;;;;;21.98;49.32;95730.34;5010739;28;20055;-81
2022/06/18 11:05:19;;;;;;;5.32;4.43;;;;;;;22.03;47.80;95722.28;5027010;28;20029;-81
2022/06/18 11:07:47;;;;;;;6.05;5.03;;;;;;;22.14;47.92;95725.19;5027660;28;20514;-79
2022/06/18 11:10:43;;;;;;;7.75;4.07;;;;;;;22.16;47.77;95728.50;5026624;28;20068;-82
2022/06/18 11:13:35;;;;;;;3.40;3.00;;;;;;;22.26;46.72;95722.41;5028538;28;20128;-79
2022/06/18 11:16:13;;;;;;;6.38;2.85;;;;;;;22.53;47.08;95719.91;5010838;28;20029;-79
2022/06/18 11:19:01;;;;;;;5.68;2.65;;;;;;;22.72;45.31;95727.91;5026319;28;20142;-80
2022/06/18 11:21:34;;;;;;;3.33;2.42;;;;;;;22.77;44.10;95729.88;5027259;28;20038;-80
2022/06/18 11:24:05;;;;;;;4.18;3.25;;;;;;;22.95;45.33;95737.03;5026162;28;20029;-82
2022/06/18 11:26:31;;;;;;;4.78;2.50;;;;;;;23.13;44.93;95725.00;5026777;28;20045;-79
2022/06/18 11:29:04;;;;;;;6.65;2.55;;;;;;;23.03;46.51;95722.09;5028503;28;20080;-81
2022/06/18 11:31:32;;;;;;;5.80;2.35;;;;;;;23.33;43.36;95732.66;5011250;28;20032;-81
2022/06/18 11:34:04;;;;;;;2.60;2.30;;;;;;;23.43;40.98;95721.06;5044096;28;20179;-77
2022/06/18 11:36:35;;;;;;;3.97;1.90;;;;;;;23.57;39.60;95727.00;5010376;28;20032;-82
2022/06/18 11:39:02;;;;;;;2.58;1.80;;;;;;;23.69;39.09;95718.69;5027210;28;20643;-81
2022/06/18 11:41:40;;;;;;;3.35;1.85;;;;;;;23.76;39.21;95723.16;5026977;28;20094;-81
2022/06/18 11:44:17;;;;;;;2.97;1.83;;;;;;;23.78;39.47;95731.94;5010366;28;20523;-78
2022/06/18 11:46:45;;;;;;;2.85;1.55;;;;;;;23.74;38.62;95734.34;5026886;28;20042;-79
2022/06/18 11:49:13;;;;;;;1.98;1.50;;;;;;;23.80;38.44;95730.59;5025986;28;20022;-78
2022/06/18 11:51:42;;;;;;;2.78;1.70;;;;;;;23.77;38.70;95736.59;5027379;28;20037;-82
2022/06/18 11:54:31;;;;;;;2.15;1.40;;;;;;;23.80;38.66;95741.53;5025721;28;20021;-78